Time;durP1;ratioP1;P1;durP2;ratioP2;P2;SDS_P1;SDS_P2;PMS_P1;PMS_P2;Temp;Humidity;BMP_temperature;BMP_pressure;BME280_temperature;BME280_humidity;BME280_pressure;Samples;Min_cycle;Max_cycle;Signal;HPM_P1;HPM_P2
2023/12/24 00:00:30;;;;;;;6.35;2.20;;;;;;;12.71;76.01;101270.00;5001472;28;20056;-65
2023/12/24 00:02:58;;;;;;;3.85;1.60;;;;;;;12.68;76.42;101268.69;5052535;28;20040;-65
2023/12/24 00:05:27;;;;;;;3.95;1.60;;;;;;;12.62;76.54;101272.72;5033363;28;20049;-65
2023/12/24 00:07:55;;;;;;;5.85;1.80;;;;;;;12.46;77.18;101277.75;5052833;28;20053;-67
2023/12/24 00:10:22;;;;;;;6.03;1.70;;;;;;;12.72;76.91;101271.63;5051808;28;20673;-66
2023/12/24 00:12:49;;;;;;;7.35;2.35;;;;;;;12.85;76.51;101266.03;5034904;28;20668;-65
2023/12/24 00:15:17;;;;;;;5.53;2.47;;;;;;;12.83;76.72;101262.75;5032665;28;20049;-65
2023/12/24 00:17:44;;;;;;;3.35;1.55;;;;;;;12.89;76.61;101275.34;5000567;28;20053;-65
2023/12/24 00:20:12;;;;;;;4.28;1.65;;;;;;;13.05;76.29;101275.78;5050651;28;20053;-65
2023/12/24 00:22:39;;;;;;;3.80;1.60;;;;;;;12.94;75.98;101277.97;5051254;28;20045;-66
2023/12/24 00:25:07;;;;;;;3.47;1.70;;;;;;;12.72;77.08;101271.63;5049926;28;20048;-65
2023/12/24 00:27:34;;;;;;;6.82;1.85;;;;;;;12.74;76.57;101275.72;5048522;28;20049;-66
2023/12/24 00:30:01;;;;;;;4.57;1.60;;;;;;;12.56;77.52;101262.91;5036056;28;20045;-65
2023/12/24 00:32:29;;;;;;;4.25;1.73;;;;;;;12.70;76.85;101258.13;5032147;28;20049;-65
2023/12/24 00:34:56;;;;;;;4.28;1.50;;;;;;;12.67;77.11;101247.72;5031428;28;20041;-65
2023/12/24 00:37:23;;;;;;;3.55;1.50;;;;;;;12.41;77.35;101266.03;5032216;28;20057;-66
2023/12/24 00:39:51;;;;;;;3.60;1.58;;;;;;;12.51;77.95;101259.44;5045671;28;20052;-64
2023/12/24 00:42:21;;;;;;;8.00;3.35;;;;;;;12.66;77.44;101264.63;5049917;28;20049;-65
2023/12/24 00:44:48;;;;;;;5.68;1.77;;;;;;;12.37;77.73;101263.09;5049951;28;20405;-65
2023/12/24 00:47:15;;;;;;;5.57;1.95;;;;;;;12.39;78.03;101262.75;5051246;28;20087;-65
2023/12/24 00:49:42;;;;;;;5.05;1.70;;;;;;;12.41;77.43;101263.28;5015478;28;20053;-66
2023/12/24 00:52:10;;;;;;;3.03;1.40;;;;;;;12.45;77.53;101267.03;5033104;28;20064;-65
2023/12/24 00:54:37;;;;;;;5.55;1.90;;;;;;;12.43;77.29;101252.69;5037556;28;20740;-65
2023/12/24 00:57:05;;;;;;;4.32;1.55;;;;;;;12.32;78.54;101256.84;5035604;28;20048;-65
2023/12/24 00:59:32;;;;;;;4.63;1.58;;;;;;;12.55;77.89;101246.63;5017735;28;20045;-65
2023/12/24 01:02:00;;;;;;;5.35;1.70;;;;;;;12.58;77.05;101238.53;5020786;28;20526;-66
2023/12/24 01:04:27;;;;;;;4.03;1.58;;;;;;;12.58;77.68;101246.00;5055023;28;20053;-64
2023/12/24 01:06:54;;;;;;;4.20;1.40;;;;;;;12.73;77.14;101229.03;5053724;28;20049;-65
2023/12/24 01:09:21;;;;;;;4.85;1.50;;;;;;;13.00;75.58;101243.53;5037622;28;20045;-64
2023/12/24 01:11:49;;;;;;;4.00;1.75;;;;;;;12.88;75.84;101242.47;5037043;28;20120;-65
2023/12/24 01:14:17;;;;;;;5.40;1.60;;;;;;;12.50;77.50;101244.00;5055050;28;20052;-64
2023/12/24 01:16:45;;;;;;;4.97;1.58;;;;;;;12.73;76.89;101237.31;5037136;28;20048;-65
2023/12/24 01:19:13;;;;;;;2.97;1.40;;;;;;;12.75;76.83;101248.88;5053672;28;20048;-66
2023/12/24 01:21:40;;;;;;;3.00;1.13;;;;;;;12.40;78.21;101254.16;5052784;28;20056;-60
2023/12/24 01:24:08;;;;;;;4.97;1.70;;;;;;;12.73;77.23;101249.19;5033167;28;20049;-60
2023/12/24 01:26:36;;;;;;;4.10;1.80;;;;;;;12.83;76.29;101240.66;5044864;28;20053;-60
2023/12/24 01:29:04;;;;;;;5.38;1.77;;;;;;;12.85;76.23;101240.34;5054138;28;20045;-62
2023/12/24 01:31:31;;;;;;;5.80;2.03;;;;;;;12.72;76.65;101235.69;5040151;28;20428;-60
2023/12/24 01:33:59;;;;;;;4.53;1.95;;;;;;;12.71;76.78;101240.41;5020250;28;20064;-62
2023/12/24 01:36:26;;;;;;;4.28;1.60;;;;;;;12.56;77.02;101251.84;5016139;28;20156;-61
2023/12/24 01:38:54;;;;;;;2.15;1.10;;;;;;;12.44;77.55;101260.69;5023529;28;20182;-60
2023/12/24 01:41:22;;;;;;;2.95;1.55;;;;;;;12.39;78.57;101247.00;5036226;28;20059;-61
2023/12/24 01:43:49;;;;;;;4.35;1.20;;;;;;;12.22;77.95;101235.78;5053290;28;20049;-61
2023/12/24 01:46:24;;;;;;;3.25;1.20;;;;;;;12.30;78.16;101237.84;5036913;28;20665;-59
2023/12/24 01:48:51;;;;;;;2.50;1.15;;;;;;;12.17;78.03;101240.63;5019525;28;20064;-60
2023/12/24 01:51:20;;;;;;;3.28;1.20;;;;;;;12.32;77.05;101241.09;5051971;28;20163;-60
2023/12/24 01:53:49;;;;;;;5.80;1.50;;;;;;;12.34;76.54;101258.16;5053848;28;20202;-61
2023/12/24 01:56:17;;;;;;;2.92;1.10;;;;;;;12.36;76.49;101246.81;5054508;28;20438;-61
2023/12/24 01:58:44;;;;;;;3.15;1.10;;;;;;;12.23;76.88;101258.72;5008487;28;20066;-60
2023/12/24 02:01:11;;;;;;;2.22;1.15;;;;;;;12.43;76.58;101247.19;5031630;28;20049;-61
2023/12/24 02:03:39;;;;;;;3.83;1.00;;;;;;;12.33;76.55;101242.72;5027400;28;20420;-61
2023/12/24 02:06:08;;;;;;;2.83;1.10;;;;;;;12.22;76.66;101240.53;5018059;28;20057;-59
2023/12/24 02:08:53;;;;;;;3.90;1.20;;;;;;;12.06;77.84;101233.72;5024679;28;20057;-62
2023/12/24 02:11:26;;;;;;;2.92;0.95;;;;;;;12.44;76.47;101221.19;4994883;28;20041;-66
2023/12/24 02:13:54;;;;;;;3.47;0.98;;;;;;;12.42;76.23;101231.75;5016042;28;20045;-64
2023/12/24 02:16:23;;;;;;;2.42;0.95;;;;;;;12.48;75.57;101232.44;5016200;28;20061;-66
2023/12/24 02:18:50;;;;;;;2.30;0.88;;;;;;;12.49;75.63;101226.59;5037668;28;20041;-65
2023/12/24 02:21:18;;;;;;;1.85;1.00;;;;;;;12.48;75.11;101222.22;5019185;28;20064;-65
2023/12/24 02:23:45;;;;;;;3.08;1.05;;;;;;;12.30;75.81;101209.38;5002836;28;20064;-65
2023/12/24 02:26:28;;;;;;;3.25;1.10;;;;;;;12.53;75.50;101211.03;5035707;28;20079;-64
2023/12/24 02:29:02;;;;;;;2.58;0.95;;;;;;;12.29;75.92;101221.56;5036259;28;20041;-65
2023/12/24 02:31:31;;;;;;;3.40;1.20;;;;;;;12.48;75.47;101217.47;5035792;28;20057;-66
2023/12/24 02:34:01;;;;;;;1.88;1.00;;;;;;;12.41;75.58;101211.56;5052324;28;20056;-65
2023/12/24 02:36:29;;;;;;;4.75;1.33;;;;;;;12.71;75.12;101211.97;5018668;28;20045;-65
2023/12/24 02:38:57;;;;;;;5.50;1.42;;;;;;;12.62;74.47;101211.09;5031101;28;20049;-64
2023/12/24 02:41:24;;;;;;;3.38;0.90;;;;;;;12.83;74.14;101218.53;4983772;28;20057;-60
2023/12/24 02:43:52;;;;;;;3.67;1.10;;;;;;;12.76;74.56;101223.69;5015790;28;20084;-65
2023/12/24 02:46:19;;;;;;;1.98;1.10;;;;;;;12.71;74.24;101226.59;5033438;28;20052;-64
2023/12/24 02:48:46;;;;;;;4.55;1.20;;;;;;;12.59;74.83;101223.56;5033382;28;20060;-66
2023/12/24 02:51:14;;;;;;;5.57;1.30;;;;;;;12.56;75.22;101220.63;5032036;28;20041;-65
2023/12/24 02:53:42;;;;;;;3.38;1.08;;;;;;;12.50;75.45;101222.69;5033623;28;20060;-65
2023/12/24 02:56:10;;;;;;;3.13;1.30;;;;;;;12.54;75.02;101226.47;5046016;28;20060;-64
2023/12/24 02:58:37;;;;;;;3.25;1.10;;;;;;;12.55;75.28;101217.06;5048031;28;20067;-64
2023/12/24 03:01:04;;;;;;;3.80;1.25;;;;;;;12.48;76.29;101200.09;5035276;28;20052;-65
2023/12/24 03:03:32;;;;;;;4.43;1.10;;;;;;;12.61;75.36;101199.22;5053582;28;20049;-65
2023/12/24 03:05:59;;;;;;;3.15;1.08;;;;;;;12.69;75.59;101186.59;5034511;28;20044;-65
2023/12/24 03:08:27;;;;;;;2.25;1.13;;;;;;;12.61;74.96;101179.88;5007897;28;20045;-65
2023/12/24 03:10:54;;;;;;;4.05;1.05;;;;;;;12.15;77.58;101180.19;5021348;28;20500;-65
2023/12/24 03:13:21;;;;;;;1.63;0.90;;;;;;;12.26;77.34;101183.50;5035267;28;20053;-65
2023/12/24 03:15:49;;;;;;;3.97;1.00;;;;;;;12.30;77.08;101176.25;5050669;28;20049;-65
2023/12/24 03:18:16;;;;;;;2.80;1.10;;;;;;;12.25;77.41;101181.88;5033446;28;20076;-65
2023/12/24 03:20:44;;;;;;;1.92;0.80;;;;;;;12.17;77.50;101175.16;5035307;28;20838;-65
2023/12/24 03:23:11;;;;;;;3.15;1.10;;;;;;;12.05;78.49;101185.94;5051376;28;20060;-64
2023/12/24 03:25:39;;;;;;;3.25;0.90;;;;;;;12.30;78.16;101198.34;5035069;28;20045;-64
2023/12/24 03:28:06;;;;;;;3.80;1.00;;;;;;;12.44;77.13;101194.41;5051228;28;20064;-65
2023/12/24 03:30:33;;;;;;;2.97;1.00;;;;;;;12.60;76.38;101191.25;5052887;28;20045;-65
2023/12/24 03:33:01;;;;;;;3.42;1.00;;;;;;;12.36;76.43;101175.78;5045809;28;20575;-65
2023/12/24 03:35:29;;;;;;;3.30;1.10;;;;;;;12.20;77.63;101157.97;5052812;28;20048;-64
2023/12/24 03:37:56;;;;;;;2.42;0.90;;;;;;;12.30;77.98;101143.09;5035206;28;20045;-65
2023/12/24 03:40:24;;;;;;;5.03;1.15;;;;;;;12.34;77.61;101141.34;5017791;28;20553;-65
2023/12/24 03:42:51;;;;;;;4.47;1.08;;;;;;;12.48;77.20;101139.31;5052776;28;20507;-64
2023/12/24 03:45:18;;;;;;;4.05;1.00;;;;;;;12.10;77.51;101143.59;5052793;28;20060;-65
2023/12/24 03:47:46;;;;;;;4.20;1.30;;;;;;;12.09;78.75;101136.44;5049527;28;20057;-65
2023/12/24 03:50:15;;;;;;;4.05;1.10;;;;;;;12.28;77.01;101134.31;5031942;28;20057;-65
2023/12/24 03:52:43;;;;;;;6.75;1.10;;;;;;;12.10;78.27;101144.41;5052162;28;20057;-65
2023/12/24 03:55:10;;;;;;;5.55;1.08;;;;;;;12.05;78.09;101152.81;5049643;28;20064;-65
2023/12/24 03:57:37;;;;;;;4.45;1.30;;;;;;;11.79;79.03;101165.56;5029663;28;20056;-65
2023/12/24 04:00:05;;;;;;;7.75;1.58;;;;;;;11.65;80.51;101169.47;5023239;28;20435;-65
2023/12/24 04:02:35;;;;;;;;;;;;;;;11.83;79.78;101158.31;5053054;28;20048;-65
2023/12/24 04:05:02;;;;;;;9.63;1.88;;;;;;;11.68;80.05;101163.38;5051857;28;20378;-66
2023/12/24 04:07:29;;;;;;;6.53;1.05;;;;;;;11.66;80.37;101166.44;5016394;28;20057;-65
2023/12/24 04:09:57;;;;;;;6.07;1.40;;;;;;;11.74;79.56;101167.63;5033464;28;20060;-64
2023/12/24 04:12:24;;;;;;;5.50;1.40;;;;;;;12.03;78.84;101159.78;5034417;28;20044;-65
2023/12/24 04:14:51;;;;;;;4.90;1.02;;;;;;;12.03;78.48;101154.28;5033492;28;20053;-63
2023/12/24 04:17:18;;;;;;;4.75;1.35;;;;;;;11.89;79.29;101145.22;5034202;28;20056;-65
2023/12/24 04:19:46;;;;;;;8.38;1.65;;;;;;;12.09;78.20;101142.78;5033353;28;20072;-64
2023/12/24 04:22:13;;;;;;;7.80;1.45;;;;;;;12.21;77.27;101137.50;5024533;28;20052;-64
2023/12/24 04:24:41;;;;;;;7.25;1.67;;;;;;;12.16;77.24;101117.47;5044298;28;20617;-64
2023/12/24 04:27:10;;;;;;;5.35;1.50;;;;;;;11.97;77.58;101105.81;5054112;28;20056;-65
2023/12/24 04:29:38;;;;;;;6.77;1.27;;;;;;;12.02;78.30;101098.22;5038611;28;20049;-65
2023/12/24 04:32:05;;;;;;;8.40;1.30;;;;;;;12.08;77.92;101094.19;5017655;28;20061;-64
2023/12/24 04:34:32;;;;;;;6.07;1.25;;;;;;;11.93;78.09;101083.53;5019155;28;20520;-64
2023/12/24 04:37:00;;;;;;;7.57;1.40;;;;;;;11.95;78.17;101081.28;5036651;28;20452;-65
2023/12/24 04:39:27;;;;;;;7.57;1.40;;;;;;;12.01;78.50;101059.91;5021324;28;20053;-66
2023/12/24 04:41:55;;;;;;;9.48;1.85;;;;;;;12.09;78.63;101056.38;5055771;28;20049;-64
2023/12/24 04:44:22;;;;;;;8.88;1.70;;;;;;;11.90;78.50;101056.56;5054467;28;20056;-64
2023/12/24 04:46:50;;;;;;;9.35;1.95;;;;;;;11.83;78.96;101066.41;5036675;28;20048;-64
2023/12/24 04:49:17;;;;;;;9.20;1.77;;;;;;;11.87;78.50;101070.97;5042522;28;20040;-64
2023/12/24 04:51:45;;;;;;;11.82;2.38;;;;;;;11.98;78.36;101068.78;5033506;28;20504;-65
2023/12/24 04:54:12;;;;;;;10.55;1.77;;;;;;;12.06;77.63;101079.91;5035493;28;20056;-64
2023/12/24 04:56:40;;;;;;;11.38;1.80;;;;;;;11.99;78.45;101075.94;5052145;28;20507;-65
2023/12/24 04:59:07;;;;;;;12.27;2.83;;;;;;;11.98;78.26;101066.03;5051110;28;20049;-65
2023/12/24 05:01:34;;;;;;;12.23;2.30;;;;;;;11.68;79.09;101067.56;5013095;28;20057;-65
2023/12/24 05:04:03;;;;;;;12.45;2.33;;;;;;;11.67;79.85;101078.94;5042923;28;20045;-65
2023/12/24 05:06:30;;;;;;;13.98;2.28;;;;;;;11.89;79.08;101071.47;5033940;28;20049;-65
2023/12/24 05:08:58;;;;;;;14.52;2.75;;;;;;;11.73;78.65;101069.41;5034138;28;20053;-65
2023/12/24 05:11:25;;;;;;;8.35;1.95;;;;;;;11.81;79.38;101074.19;5039090;28;20048;-65
2023/12/24 05:13:53;;;;;;;11.55;2.85;;;;;;;11.45;80.13;101067.84;5053876;28;20052;-65
2023/12/24 05:16:20;;;;;;;15.20;2.83;;;;;;;11.84;79.20;101079.06;5053878;28;20045;-64
2023/12/24 05:18:49;;;;;;;12.48;2.45;;;;;;;11.79;79.28;101088.28;5034701;28;20530;-65
2023/12/24 05:21:16;;;;;;;15.88;2.45;;;;;;;11.66;79.03;101108.50;5020434;28;20064;-65
2023/12/24 05:23:44;;;;;;;10.52;2.55;;;;;;;11.87;78.65;101101.34;5053894;28;20057;-65
2023/12/24 05:26:11;;;;;;;14.18;2.08;;;;;;;11.80;78.14;101100.97;5017975;28;20061;-65
2023/12/24 05:28:38;;;;;;;13.63;2.38;;;;;;;11.68;79.15;101100.69;5036149;28;20060;-66
2023/12/24 05:31:06;;;;;;;12.95;2.53;;;;;;;11.86;78.22;101091.44;5054702;28;20052;-65
2023/12/24 05:33:33;;;;;;;16.00;2.50;;;;;;;12.04;78.36;101084.09;5055112;28;20041;-65
2023/12/24 05:36:00;;;;;;;17.88;3.35;;;;;;;12.05;77.76;101077.44;5054986;28;20048;-68
2023/12/24 05:38:28;;;;;;;13.73;2.60;;;;;;;11.86;77.94;101076.81;5053917;28;20044;-65
2023/12/24 05:40:55;;;;;;;14.63;2.25;;;;;;;11.51;79.84;101064.66;5054793;28;20508;-64
2023/12/24 05:43:23;;;;;;;15.18;2.03;;;;;;;11.57;80.01;101060.66;5054982;28;20064;-65
2023/12/24 05:45:50;;;;;;;16.17;2.95;;;;;;;11.65;79.82;101054.41;5035633;28;20060;-65
2023/12/24 05:48:17;;;;;;;16.13;2.60;;;;;;;12.05;78.53;101042.38;5032512;28;20052;-65
2023/12/24 05:50:44;;;;;;;12.48;2.03;;;;;;;11.92;78.14;101043.28;5016097;28;20053;-65
2023/12/24 05:53:12;;;;;;;16.45;2.78;;;;;;;11.91;78.65;101025.06;5016922;28;20095;-65
2023/12/24 05:55:39;;;;;;;11.23;2.33;;;;;;;11.67;79.37;101027.31;5032206;28;20053;-65
2023/12/24 05:58:06;;;;;;;18.50;3.08;;;;;;;11.86;78.78;101013.34;5044155;28;20053;-64
2023/12/24 06:00:35;;;;;;;17.38;2.80;;;;;;;11.90;78.83;101017.94;5052996;28;20048;-65
2023/12/24 06:03:03;;;;;;;13.10;2.10;;;;;;;12.04;78.79;101029.72;5018402;28;20049;-65
2023/12/24 06:05:30;;;;;;;16.42;2.78;;;;;;;12.01;78.50;101021.25;5036059;28;20057;-66
2023/12/24 06:07:58;;;;;;;16.50;2.85;;;;;;;11.91;78.85;101019.53;5035318;28;20507;-65
2023/12/24 06:10:26;;;;;;;14.30;2.40;;;;;;;12.13;78.74;101033.31;5035244;28;20551;-65
2023/12/24 06:12:54;;;;;;;13.38;2.35;;;;;;;12.29;77.60;101026.25;5049527;28;20435;-61
2023/12/24 06:15:21;;;;;;;12.20;2.72;;;;;;;12.14;77.88;101032.19;5024232;28;20049;-60
2023/12/24 06:17:49;;;;;;;13.75;2.42;;;;;;;12.18;77.97;101030.44;5018959;28;20053;-61
2023/12/24 06:20:16;;;;;;;15.98;2.17;;;;;;;12.24;77.44;101036.63;5036474;28;20057;-61
2023/12/24 06:22:44;;;;;;;17.60;2.47;;;;;;;12.16;77.74;101037.41;5049188;28;20388;-61
2023/12/24 06:25:11;;;;;;;15.45;2.70;;;;;;;12.21;77.67;101027.03;5032710;28;20054;-60
2023/12/24 06:27:39;;;;;;;15.48;2.58;;;;;;;12.30;77.19;101018.78;5038683;28;20041;-60
2023/12/24 06:30:07;;;;;;;15.85;2.90;;;;;;;12.22;77.59;101036.16;5035830;28;20056;-60
2023/12/24 06:32:34;;;;;;;18.45;3.28;;;;;;;11.93;79.18;101035.78;5054170;28;20053;-62
2023/12/24 06:35:02;;;;;;;12.65;2.63;;;;;;;12.08;78.56;101027.94;5018669;28;20144;-61
2023/12/24 06:37:29;;;;;;;13.32;2.20;;;;;;;11.95;78.65;101037.13;5035571;28;20052;-60
2023/12/24 06:39:57;;;;;;;13.10;2.40;;;;;;;12.12;78.81;101030.88;5053410;28;20048;-60
2023/12/24 06:42:24;;;;;;;14.65;2.47;;;;;;;12.05;78.44;101027.75;5053852;28;20075;-60
2023/12/24 06:44:51;;;;;;;15.38;3.45;;;;;;;12.00;78.60;101022.34;5034793;28;20053;-60
2023/12/24 06:47:20;;;;;;;18.80;2.97;;;;;;;12.08;78.97;101019.66;5053703;28;20044;-60
2023/12/24 06:49:48;;;;;;;17.13;3.03;;;;;;;11.98;78.50;101021.84;5031613;28;20049;-60
2023/12/24 06:52:15;;;;;;;14.02;2.95;;;;;;;11.97;79.47;101018.28;5031511;28;20072;-60
2023/12/24 06:54:42;;;;;;;13.07;2.60;;;;;;;12.04;78.81;101007.63;5033124;28;20612;-61
2023/12/24 06:57:10;;;;;;;22.25;3.63;;;;;;;12.03;78.99;101007.94;5028259;28;20057;-60
2023/12/24 06:59:37;;;;;;;15.35;2.53;;;;;;;12.15;78.21;101008.16;5045646;28;20053;-60
2023/12/24 07:02:04;;;;;;;17.48;3.08;;;;;;;12.17;78.47;101011.41;5032806;28;20057;-61
2023/12/24 07:04:32;;;;;;;17.27;2.97;;;;;;;12.04;78.58;101013.16;5013704;28;20052;-60
2023/12/24 07:06:59;;;;;;;19.45;2.67;;;;;;;11.93;80.11;101013.69;5035670;28;20037;-60
2023/12/24 07:09:27;;;;;;;15.95;2.45;;;;;;;12.03;79.77;101016.22;5035142;28;20053;-61
2023/12/24 07:11:54;;;;;;;16.17;2.72;;;;;;;11.98;80.09;101010.81;5052579;28;20076;-59
2023/12/24 07:14:21;;;;;;;18.33;3.03;;;;;;;11.93;80.39;101027.50;5053289;28;20060;-60
2023/12/24 07:16:49;;;;;;;10.52;2.47;;;;;;;12.02;80.51;101022.84;5051224;28;20424;-61
2023/12/24 07:19:16;;;;;;;18.23;3.20;;;;;;;12.09;80.38;101020.47;5049203;28;20056;-61
2023/12/24 07:21:44;;;;;;;15.68;3.08;;;;;;;12.10;80.30;101022.13;5052782;28;20053;-60
2023/12/24 07:24:12;;;;;;;17.40;2.63;;;;;;;11.93;80.62;101019.22;5034257;28;20049;-62
2023/12/24 07:26:39;;;;;;;17.15;2.53;;;;;;;12.13;80.75;101013.19;5039043;28;20416;-59
2023/12/24 07:29:07;;;;;;;17.92;2.85;;;;;;;12.06;80.15;101015.59;5052828;28;20049;-60
2023/12/24 07:31:34;;;;;;;15.63;2.63;;;;;;;11.95;80.76;101022.50;5035329;28;20567;-60
2023/12/24 07:34:01;;;;;;;16.90;3.33;;;;;;;12.18;80.11;101024.91;5014853;28;20516;-60
2023/12/24 07:36:28;;;;;;;15.40;2.95;;;;;;;12.16;80.91;101013.38;5040276;28;20052;-61
2023/12/24 07:38:56;;;;;;;19.80;3.00;;;;;;;12.15;81.84;101013.69;5052450;28;20041;-59
2023/12/24 07:41:26;;;;;;;14.40;2.40;;;;;;;12.23;81.23;101015.66;5051615;28;20049;-61
2023/12/24 07:43:55;;;;;;;18.27;3.63;;;;;;;12.30;81.13;101011.34;5051945;28;20080;-61
2023/12/24 07:46:22;;;;;;;17.00;3.30;;;;;;;12.12;82.05;101009.59;5051893;28;20045;-59
2023/12/24 07:48:50;;;;;;;13.20;3.08;;;;;;;12.27;82.00;101013.91;5049458;28;20053;-60
2023/12/24 07:51:18;;;;;;;16.45;3.20;;;;;;;12.16;82.57;101005.09;5050407;28;20065;-61
2023/12/24 07:53:45;;;;;;;16.90;3.13;;;;;;;12.12;83.21;101009.59;5032574;28;20700;-59
2023/12/24 07:56:12;;;;;;;22.75;3.45;;;;;;;12.17;83.63;101008.63;5033024;28;20397;-60
2023/12/24 07:58:40;;;;;;;20.90;3.10;;;;;;;12.36;83.43;101006.50;5038698;28;20044;-60
2023/12/24 08:01:07;;;;;;;22.35;2.95;;;;;;;12.34;82.71;101006.78;5033180;28;20052;-61
2023/12/24 08:03:34;;;;;;;20.08;2.70;;;;;;;12.14;83.06;101015.63;5033514;28;20044;-60
2023/12/24 08:06:02;;;;;;;18.45;3.15;;;;;;;12.20;83.16;101005.28;5034013;28;20053;-61
2023/12/24 08:08:29;;;;;;;17.63;2.60;;;;;;;12.11;83.81;101007.16;5050283;28;20048;-59
2023/12/24 08:11:00;;;;;;;16.70;3.75;;;;;;;12.30;83.31;101005.81;5034602;28;20049;-61
2023/12/24 08:13:43;;;;;;;16.58;2.92;;;;;;;12.32;82.90;101011.00;5028240;28;20065;-61
2023/12/24 08:16:13;;;;;;;;;;;;;;;12.20;82.52;101019.06;4999352;28;20428;-62
2023/12/24 08:18:40;;;;;;;22.02;3.40;;;;;;;11.95;83.08;101023.31;5006313;28;20283;-61
2023/12/24 08:21:10;;;;;;;23.55;3.17;;;;;;;12.01;83.74;101019.28;5034420;28;20053;-62
2023/12/24 08:23:38;;;;;;;17.70;3.10;;;;;;;12.16;82.36;101024.41;5034756;28;20454;-61
2023/12/24 08:26:05;;;;;;;17.08;2.63;;;;;;;12.31;81.60;101026.75;5052384;28;20049;-61
2023/12/24 08:28:33;;;;;;;20.60;4.50;;;;;;;12.44;80.74;101025.88;5052415;28;20051;-60
2023/12/24 08:31:00;;;;;;;15.35;2.80;;;;;;;12.16;81.83;101038.22;5034089;28;20076;-65
2023/12/24 08:33:28;;;;;;;14.65;3.17;;;;;;;12.19;81.51;101045.03;5014267;28;20060;-64
2023/12/24 08:35:55;;;;;;;13.38;2.55;;;;;;;12.44;80.62;101050.72;5029142;28;20063;-65
2023/12/24 08:38:23;;;;;;;15.90;2.63;;;;;;;12.34;80.53;101050.19;5009298;28;20061;-66
2023/12/24 08:41:07;;;;;;;11.30;2.50;;;;;;;12.21;80.89;101062.94;5052149;28;20052;-65
2023/12/24 08:43:44;;;;;;;13.52;3.13;;;;;;;12.45;79.66;101051.53;5021943;28;20057;-65
2023/12/24 08:46:11;;;;;;;15.95;2.83;;;;;;;12.59;79.03;101052.25;5031374;28;20128;-65
2023/12/24 08:48:38;;;;;;;16.63;2.60;;;;;;;12.45;79.17;101057.03;5035332;28;20053;-66
2023/12/24 08:51:06;;;;;;;13.80;2.63;;;;;;;12.31;79.86;101050.81;5031851;28;20504;-65
2023/12/24 08:53:34;;;;;;;16.73;2.88;;;;;;;12.40;79.71;101068.25;5033151;28;20065;-64
2023/12/24 08:56:01;;;;;;;22.90;6.32;;;;;;;12.39;79.06;101059.16;5027522;28;20076;-65
2023/12/24 08:58:29;;;;;;;21.25;4.47;;;;;;;12.39;79.20;101053.63;5014345;28;20053;-60
2023/12/24 09:00:56;;;;;;;17.27;3.42;;;;;;;12.69;78.20;101054.75;5031515;28;20053;-61
2023/12/24 09:03:24;;;;;;;17.52;3.72;;;;;;;12.67;77.60;101057.00;5023300;28;20053;-60
2023/12/24 09:05:51;;;;;;;17.13;2.90;;;;;;;12.54;78.34;101055.16;5030924;28;20056;-60
2023/12/24 09:08:19;;;;;;;20.65;3.33;;;;;;;12.61;78.13;101054.69;5013792;28;20053;-61
2023/12/24 09:10:46;;;;;;;20.95;3.30;;;;;;;12.52;78.72;101057.41;5013958;28;20049;-59
2023/12/24 09:13:13;;;;;;;14.27;2.80;;;;;;;12.64;77.86;101063.16;5032246;28;20046;-61
2023/12/24 09:15:41;;;;;;;19.75;2.95;;;;;;;12.51;78.03;101066.03;5039935;28;20041;-60
2023/12/24 09:18:08;;;;;;;16.50;3.22;;;;;;;12.77;77.73;101053.94;5052086;28;20057;-61
2023/12/24 09:20:36;;;;;;;17.65;3.15;;;;;;;12.85;77.34;101060.66;5014178;28;20599;-60
2023/12/24 09:23:03;;;;;;;15.30;3.22;;;;;;;12.81;77.18;101059.66;5015166;28;20685;-61
2023/12/24 09:25:31;;;;;;;19.73;3.13;;;;;;;12.74;77.46;101059.31;4998302;28;20049;-60
2023/12/24 09:27:58;;;;;;;17.25;3.00;;;;;;;12.76;77.70;101059.81;5015473;28;20050;-61
2023/12/24 09:30:26;;;;;;;18.60;3.20;;;;;;;12.82;77.59;101066.81;5021399;28;20404;-60
2023/12/24 09:32:53;;;;;;;14.85;2.38;;;;;;;12.93;77.01;101065.38;5017444;28;20049;-60
2023/12/24 09:35:21;;;;;;;20.30;3.90;;;;;;;12.83;77.29;101074.78;5033193;28;20060;-63
2023/12/24 09:37:48;;;;;;;14.30;3.17;;;;;;;12.89;77.34;101072.69;5034717;28;20045;-61
2023/12/24 09:40:15;;;;;;;16.95;3.45;;;;;;;12.91;76.99;101057.41;5012686;28;20378;-60
2023/12/24 09:42:42;;;;;;;23.52;3.63;;;;;;;13.20;75.74;101065.97;5015725;28;20053;-60
2023/12/24 09:45:10;;;;;;;15.88;3.05;;;;;;;12.98;76.05;101059.69;5033997;28;20072;-61
2023/12/24 09:47:37;;;;;;;17.65;2.85;;;;;;;13.15;75.52;101057.00;5030274;28;20060;-60
2023/12/24 09:50:05;;;;;;;19.83;3.70;;;;;;;13.29;75.05;101064.03;5029982;28;20057;-66
2023/12/24 09:52:35;;;;;;;20.77;3.53;;;;;;;13.24;75.11;101066.97;5046283;28;20405;-66
2023/12/24 09:55:03;;;;;;;12.38;2.67;;;;;;;13.41;74.37;101053.16;5055093;28;20049;-65
2023/12/24 09:57:31;;;;;;;24.10;3.70;;;;;;;13.04;75.21;101059.25;5048939;28;20049;-65
2023/12/24 09:59:58;;;;;;;18.40;3.00;;;;;;;12.87;76.00;101061.94;5049042;28;20060;-65
2023/12/24 10:02:25;;;;;;;18.50;3.40;;;;;;;12.89;76.69;101045.84;5037032;28;20052;-65
2023/12/24 10:04:52;;;;;;;26.58;3.53;;;;;;;12.70;77.23;101064.66;5054463;28;20500;-65
2023/12/24 10:07:20;;;;;;;18.10;4.25;;;;;;;12.91;76.84;101049.13;5054689;28;20369;-66
2023/12/24 10:09:51;;;;;;;11.90;2.85;;;;;;;12.96;76.16;101051.72;5036586;28;20049;-66
2023/12/24 10:12:19;;;;;;;16.20;3.50;;;;;;;13.12;75.50;101072.31;5036346;28;20053;-60
2023/12/24 10:14:57;;;;;;;20.85;3.03;;;;;;;12.96;75.84;101064.72;5052304;28;20057;-61
2023/12/24 10:17:34;;;;;;;15.48;2.80;;;;;;;13.03;76.11;101073.41;5054659;28;20408;-60
2023/12/24 10:20:08;;;;;;;20.25;3.67;;;;;;;13.17;75.99;101074.94;5053177;28;20049;-61
2023/12/24 10:22:36;;;;;;;;;;;;;;;13.26;74.87;101073.00;5054497;28;20064;-61
2023/12/24 10:25:07;;;;;;;15.82;3.10;;;;;;;13.29;75.02;101069.56;5031457;28;19921;-65
2023/12/24 10:27:34;;;;;;;18.63;4.07;;;;;;;13.27;75.14;101065.50;5048835;28;20057;-61
2023/12/24 10:30:13;;;;;;;18.85;3.63;;;;;;;13.27;75.16;101073.78;5030909;28;20041;-61
2023/12/24 10:32:42;;;;;;;12.18;2.95;;;;;;;13.41;74.52;101057.88;5034428;28;20041;-60
2023/12/24 10:35:11;;;;;;;23.48;3.30;;;;;;;13.12;75.92;101061.25;5046122;28;20071;-61
2023/12/24 10:37:38;;;;;;;19.52;4.85;;;;;;;13.31;75.42;101056.25;5053485;28;20060;-61
2023/12/24 10:40:08;;;;;;;16.80;4.45;;;;;;;13.42;74.95;101048.44;5035544;28;20064;-61
2023/12/24 10:42:40;;;;;;;13.35;3.30;;;;;;;13.16;75.28;101048.38;5035576;28;20506;-60
2023/12/24 10:45:08;;;;;;;19.17;2.50;;;;;;;13.30;75.25;101054.59;5054412;28;20052;-61
2023/12/24 10:47:36;;;;;;;20.08;2.85;;;;;;;13.31;75.50;101036.06;5034812;28;20052;-61
2023/12/24 10:50:04;;;;;;;20.33;3.72;;;;;;;13.42;75.17;101037.38;5029912;28;20049;-60
2023/12/24 10:52:32;;;;;;;19.25;3.40;;;;;;;13.34;75.52;101035.41;5025536;28;20083;-62
2023/12/24 10:55:01;;;;;;;18.73;3.28;;;;;;;13.50;75.42;101033.78;5033394;28;20048;-60
2023/12/24 10:57:41;;;;;;;18.40;2.95;;;;;;;13.66;74.16;101034.09;5035062;28;20053;-60
2023/12/24 11:00:12;;;;;;;16.60;2.97;;;;;;;13.67;73.76;101031.00;5035058;28;20060;-60
2023/12/24 11:02:48;;;;;;;20.77;3.88;;;;;;;13.54;74.93;101021.75;5035514;28;20049;-61
2023/12/24 11:05:45;;;;;;;17.73;3.05;;;;;;;13.53;74.76;101030.34;5053016;28;20052;-60
2023/12/24 11:08:21;;;;;;;20.13;3.22;;;;;;;13.52;75.02;101025.97;5051640;28;20041;-62
2023/12/24 11:11:17;;;;;;;15.32;2.88;;;;;;;13.66;74.82;101020.28;5053326;28;20052;-61
2023/12/24 11:13:45;;;;;;;16.08;3.83;;;;;;;13.69;74.31;101023.19;5033035;28;20056;-61
2023/12/24 11:16:36;;;;;;;17.42;3.25;;;;;;;13.83;73.92;101010.00;5053191;28;20057;-60
2023/12/24 11:19:04;;;;;;;20.35;3.63;;;;;;;13.66;73.98;101010.00;5034834;28;20544;-61
2023/12/24 11:22:04;;;;;;;18.38;3.00;;;;;;;13.86;73.85;101005.78;5031899;28;20060;-61
2023/12/24 11:24:32;;;;;;;19.20;3.70;;;;;;;14.07;73.14;100992.84;5043883;28;20057;-60
2023/12/24 11:27:14;;;;;;;19.27;5.50;;;;;;;13.97;73.50;101002.31;5035142;28;20519;-64